createdAt,value
2022-09-11T00:01:03.752Z,59.59
2022-09-11T00:03:31.549Z,60.18
2022-09-11T00:06:03.336Z,60.22
2022-09-11T00:08:32.081Z,59.03
2022-09-11T00:11:07.572Z,59.95
2022-09-11T00:13:35.844Z,59.81
2022-09-11T00:16:05.731Z,59.90
2022-09-11T00:18:36.063Z,59.33
2022-09-11T00:21:04.031Z,59.44
2022-09-11T00:23:31.444Z,59.14
2022-09-11T00:26:02.197Z,59.32
2022-09-11T00:28:29.912Z,59.04
2022-09-11T00:31:05.231Z,59.20
2022-09-11T00:33:33.513Z,58.91
2022-09-11T00:36:03.969Z,58.73
2022-09-11T00:38:33.300Z,59.44
2022-09-11T00:41:01.453Z,59.30
2022-09-11T00:43:29.624Z,59.70
2022-09-11T00:45:59.476Z,59.47
2022-09-11T00:48:30.357Z,59.74
2022-09-11T00:50:58.812Z,58.33
2022-09-11T00:53:26.557Z,58.84
2022-09-11T00:55:58.912Z,58.70
2022-09-11T00:58:27.782Z,58.32
2022-09-11T01:00:55.878Z,58.87
2022-09-11T01:03:24.458Z,59.38
2022-09-11T01:05:52.438Z,59.20
2022-09-11T01:08:21.041Z,59.52
2022-09-11T01:11:17.925Z,59.55
2022-09-11T01:13:55.205Z,60.35
2022-09-11T01:16:49.194Z,59.96
2022-09-11T01:19:37.138Z,60.07
2022-09-11T01:22:18.618Z,60.35
2022-09-11T01:25:15.615Z,60.41
2022-09-11T01:27:50.721Z,60.58
2022-09-11T01:30:22.457Z,60.25
2022-09-11T01:33:04.395Z,60.18
2022-09-11T01:35:33.070Z,59.96
2022-09-11T01:38:14.985Z,60.45
2022-09-11T01:40:45.950Z,60.71
2022-09-11T01:43:16.205Z,59.23
2022-09-11T01:45:45.448Z,59.60
2022-09-11T01:48:14.924Z,60.88
2022-09-11T01:50:42.263Z,60.46
2022-09-11T01:53:10.880Z,61.32
2022-09-11T01:55:44.416Z,61.89
2022-09-11T01:58:18.376Z,62.27
2022-09-11T02:00:46.545Z,61.80
2022-09-11T02:03:16.893Z,61.88
2022-09-11T02:06:01.856Z,62.73
2022-09-11T02:08:51.489Z,63.13
2022-09-11T02:11:19.186Z,61.89
2022-09-11T02:14:07.029Z,60.74
2022-09-11T02:16:48.905Z,61.40
2022-09-11T02:19:20.901Z,61.49
2022-09-11T02:21:48.940Z,59.64
2022-09-11T02:24:16.336Z,60.67
2022-09-11T02:26:48.327Z,62.99
2022-09-11T02:29:16.205Z,61.30
2022-09-11T02:31:44.366Z,62.61
2022-09-11T02:34:12.382Z,62.31
2022-09-11T02:36:58.187Z,63.91
2022-09-11T02:39:53.691Z,63.87
2022-09-11T02:42:31.078Z,63.52
2022-09-11T02:45:35.697Z,66.20
2022-09-11T02:48:29.131Z,64.34
2022-09-11T02:51:18.563Z,63.09
2022-09-11T02:54:02.289Z,63.48
2022-09-11T02:56:32.434Z,61.97
2022-09-11T02:59:02.703Z,62.65
2022-09-11T03:01:31.775Z,62.58
2022-09-11T03:03:59.338Z,62.83
2022-09-11T03:06:29.848Z,63.29
2022-09-11T03:08:57.152Z,62.31
2022-09-11T03:11:24.628Z,61.86
2022-09-11T03:13:52.610Z,62.16
2022-09-11T03:16:20.347Z,61.67
2022-09-11T03:18:47.937Z,61.09
2022-09-11T03:21:16.898Z,60.63
2022-09-11T03:23:44.713Z,60.61
2022-09-11T03:26:12.117Z,61.08
2022-09-11T03:28:40.040Z,60.92
2022-09-11T03:31:09.487Z,60.63
2022-09-11T03:33:37.401Z,61.93
2022-09-11T03:36:05.339Z,61.43
2022-09-11T03:38:33.089Z,61.50
2022-09-11T03:41:02.797Z,61.97
2022-09-11T03:43:31.666Z,60.96
2022-09-11T03:46:00.735Z,61.91
2022-09-11T03:48:29.200Z,61.49
2022-09-11T03:50:56.895Z,61.48
2022-09-11T03:53:24.835Z,61.68
2022-09-11T03:55:52.268Z,61.21
2022-09-11T03:58:20.175Z,61.49
2022-09-11T04:00:47.654Z,62.40
2022-09-11T04:03:16.147Z,62.07
2022-09-11T04:05:44.173Z,61.49
2022-09-11T04:08:12.920Z,61.33
2022-09-11T04:10:40.924Z,61.23
2022-09-11T04:13:08.905Z,61.02
2022-09-11T04:15:36.256Z,61.23
2022-09-11T04:18:07.347Z,60.98
2022-09-11T04:20:34.842Z,61.12
2022-09-11T04:23:02.987Z,60.87
2022-09-11T04:25:31.154Z,61.20
2022-09-11T04:27:58.768Z,61.06
2022-09-11T04:30:26.870Z,61.06
2022-09-11T04:32:55.540Z,60.31
2022-09-11T04:35:23.053Z,60.33
2022-09-11T04:37:50.848Z,60.08
2022-09-11T04:40:18.532Z,60.49
2022-09-11T04:42:45.959Z,60.40
2022-09-11T04:45:14.325Z,59.97
2022-09-11T04:47:42.448Z,60.07
2022-09-11T04:50:12.814Z,60.26
2022-09-11T04:52:40.185Z,60.02
2022-09-11T04:55:08.555Z,59.85
2022-09-11T04:57:35.908Z,60.12
2022-09-11T05:00:04.907Z,59.19
2022-09-11T05:02:32.619Z,59.89
2022-09-11T05:05:00.025Z,59.51
2022-09-11T05:07:29.866Z,59.61
2022-09-11T05:09:59.524Z,59.01
2022-09-11T05:12:28.101Z,58.93
2022-09-11T05:14:55.472Z,58.61
2022-09-11T05:17:23.212Z,58.48
2022-09-11T05:19:50.939Z,58.04
2022-09-11T05:22:20.536Z,57.67
2022-09-11T05:24:49.144Z,57.51
2022-09-11T05:27:17.468Z,57.39
2022-09-11T05:29:45.114Z,57.46
2022-09-11T05:32:13.539Z,57.06
2022-09-11T05:34:41.623Z,57.16
2022-09-11T05:37:09.418Z,56.27
2022-09-11T05:39:37.204Z,56.54
2022-09-11T05:42:05.041Z,56.33
2022-09-11T05:44:32.678Z,56.68
2022-09-11T05:47:00.517Z,56.26
2022-09-11T05:49:27.913Z,56.33
2022-09-11T05:51:55.273Z,57.10
2022-09-11T05:54:24.037Z,56.05
2022-09-11T05:56:54.611Z,57.08
2022-09-11T05:59:22.187Z,56.73
2022-09-11T06:01:50.333Z,56.33
2022-09-11T06:04:18.669Z,56.16
2022-09-11T06:06:49.460Z,55.96
2022-09-11T06:09:17.177Z,55.52
2022-09-11T06:11:44.830Z,56.96
2022-09-11T06:14:13.238Z,56.61
2022-09-11T06:16:41.146Z,54.79
2022-09-11T06:19:09.461Z,56.22
2022-09-11T06:21:36.884Z,56.91
2022-09-11T06:24:05.614Z,55.23
2022-09-11T06:26:35.405Z,53.30
2022-09-11T06:29:03.216Z,55.53
2022-09-11T06:31:30.947Z,55.23
2022-09-11T06:33:58.537Z,54.24
2022-09-11T06:36:32.646Z,54.95
2022-09-11T06:39:00.702Z,53.86
2022-09-11T06:41:28.304Z,53.14
2022-09-11T06:43:56.763Z,53.48
2022-09-11T06:46:25.338Z,51.65
2022-09-11T06:48:54.981Z,54.43
2022-09-11T06:51:23.492Z,53.34
2022-09-11T06:53:58.649Z,53.27
2022-09-11T06:56:26.310Z,53.45
2022-09-11T06:58:53.949Z,53.66
2022-09-11T07:01:22.456Z,52.49
2022-09-11T07:03:53.122Z,52.30
2022-09-11T07:06:23.379Z,54.85
2022-09-11T07:09:00.948Z,54.45
2022-09-11T07:11:33.123Z,54.75
2022-09-11T07:14:01.442Z,53.51
2022-09-11T07:16:29.336Z,53.52
2022-09-11T07:18:58.273Z,52.15
2022-09-11T07:21:27.086Z,52.72
2022-09-11T07:23:58.445Z,53.93
2022-09-11T07:26:27.526Z,53.01
2022-09-11T07:28:57.618Z,52.29
2022-09-11T07:31:27.079Z,52.92
2022-09-11T07:33:55.004Z,55.56
2022-09-11T07:36:33.113Z,53.69
2022-09-11T07:39:00.696Z,55.15
2022-09-11T07:41:29.604Z,54.43
2022-09-11T07:43:59.745Z,55.85
2022-09-11T07:46:27.620Z,53.99
2022-09-11T07:48:55.584Z,55.04
2022-09-11T07:51:22.911Z,54.06
2022-09-11T07:53:51.388Z,53.72
2022-09-11T07:56:20.835Z,54.09
2022-09-11T07:58:48.805Z,52.52
2022-09-11T08:01:18.764Z,51.84
2022-09-11T08:03:46.762Z,51.75
2022-09-11T08:06:21.533Z,51.50
2022-09-11T08:08:54.950Z,51.87
2022-09-11T08:11:22.897Z,53.17
2022-09-11T08:13:51.043Z,53.68
2022-09-11T08:16:19.961Z,54.30
2022-09-11T08:18:48.343Z,52.72
2022-09-11T08:21:16.923Z,51.05
2022-09-11T08:23:45.534Z,51.40
2022-09-11T08:26:24.265Z,51.25
2022-09-11T08:28:53.083Z,49.73
2022-09-11T08:31:22.438Z,51.93
2022-09-11T08:33:50.081Z,50.62
2022-09-11T08:36:17.759Z,52.29
2022-09-11T08:38:45.763Z,50.01
2022-09-11T08:41:25.732Z,49.31
2022-09-11T08:43:59.280Z,52.77
2022-09-11T08:46:33.833Z,49.83
2022-09-11T08:49:27.602Z,50.14
2022-09-11T08:51:58.244Z,48.42
2022-09-11T08:54:32.001Z,47.76
2022-09-11T08:57:22.221Z,49.57
2022-09-11T09:00:03.497Z,50.37
2022-09-11T09:02:50.372Z,50.83
2022-09-11T09:05:40.050Z,50.09
2022-09-11T09:08:19.522Z,50.12
2022-09-11T09:10:50.206Z,49.17
2022-09-11T09:13:37.760Z,48.53
2022-09-11T09:16:34.561Z,48.67
2022-09-11T09:19:07.209Z,45.88
2022-09-11T09:21:37.701Z,46.43
2022-09-11T09:24:08.109Z,48.46
2022-09-11T09:26:39.984Z,48.63
2022-09-11T09:29:12.158Z,48.07
2022-09-11T09:31:41.343Z,46.04
2022-09-11T09:34:17.495Z,47.71
2022-09-11T09:37:11.399Z,50.59
2022-09-11T09:39:39.114Z,51.80
2022-09-11T09:42:20.107Z,50.34
2022-09-11T09:44:50.519Z,52.63
2022-09-11T09:47:18.111Z,50.90
2022-09-11T09:49:45.481Z,50.85
2022-09-11T09:52:17.360Z,50.84
2022-09-11T09:55:06.204Z,50.16
2022-09-11T09:57:36.681Z,48.77
2022-09-11T10:00:11.928Z,48.54
2022-09-11T10:02:43.343Z,50.69
2022-09-11T10:05:42.169Z,50.97
2022-09-11T10:08:29.864Z,49.74
2022-09-11T10:11:01.296Z,51.77
2022-09-11T10:13:30.883Z,51.65
2022-09-11T10:15:59.942Z,50.60
2022-09-11T10:18:30.578Z,51.42
2022-09-11T10:21:13.310Z,51.41
2022-09-11T10:23:59.873Z,52.25
2022-09-11T10:26:41.157Z,52.01
2022-09-11T10:29:19.134Z,52.29
2022-09-11T10:31:59.333Z,52.68
2022-09-11T10:34:27.195Z,53.93
2022-09-11T10:37:15.899Z,52.75
2022-09-11T10:39:44.425Z,49.65
2022-09-11T10:42:16.872Z,49.04
2022-09-11T10:44:44.573Z,51.25
2022-09-11T10:47:25.091Z,49.75
2022-09-11T10:50:17.439Z,51.81
2022-09-11T10:53:11.044Z,52.48
2022-09-11T10:55:40.870Z,52.70
2022-09-11T10:58:14.447Z,52.09
2022-09-11T11:00:41.786Z,52.79
2022-09-11T11:03:17.600Z,50.33
2022-09-11T11:05:50.955Z,51.10
2022-09-11T11:08:40.611Z,50.30
2022-09-11T11:11:20.661Z,52.54
2022-09-11T11:14:27.183Z,51.09
2022-09-11T11:17:24.140Z,48.34
2022-09-11T11:20:11.281Z,48.57
2022-09-11T11:23:05.890Z,46.40
2022-09-11T11:25:58.468Z,45.34
2022-09-11T11:29:00.417Z,48.85
2022-09-11T11:31:40.305Z,48.79
2022-09-11T11:34:26.629Z,49.37
2022-09-11T11:37:06.814Z,49.15
2022-09-11T11:40:05.558Z,46.51
2022-09-11T11:42:35.580Z,46.95
2022-09-11T11:45:26.825Z,46.80
2022-09-11T11:47:55.465Z,47.28
2022-09-11T11:50:31.887Z,47.02
2022-09-11T11:53:12.536Z,46.74
2022-09-11T11:55:54.766Z,47.09
2022-09-11T11:58:50.182Z,46.62
2022-09-11T12:01:24.846Z,44.73
2022-09-11T12:03:59.631Z,45.12
2022-09-11T12:06:27.096Z,46.03
2022-09-11T12:08:54.731Z,46.16
2022-09-11T12:11:30.862Z,45.12
2022-09-11T12:13:58.789Z,47.30
2022-09-11T12:16:29.091Z,48.95
2022-09-11T12:19:21.373Z,53.55
2022-09-11T12:21:54.951Z,56.21
2022-09-11T12:24:52.482Z,64.97
2022-09-11T12:27:35.046Z,69.53
2022-09-11T12:30:08.730Z,74.33
2022-09-11T12:32:45.770Z,75.06
2022-09-11T12:35:15.236Z,76.11
2022-09-11T12:37:42.879Z,75.98
2022-09-11T12:40:20.284Z,73.56
2022-09-11T12:42:56.851Z,70.57
2022-09-11T12:45:30.246Z,70.71
2022-09-11T12:48:34.542Z,71.11
2022-09-11T12:51:01.889Z,71.06
2022-09-11T12:53:34.150Z,70.93
2022-09-11T12:56:06.682Z,68.09
2022-09-11T12:58:36.096Z,66.95
2022-09-11T13:01:12.166Z,66.91
2022-09-11T13:03:45.819Z,66.32
2022-09-11T13:06:13.713Z,65.26
2022-09-11T13:08:52.984Z,66.22
2022-09-11T13:11:54.420Z,64.74
2022-09-11T13:14:28.519Z,63.91
2022-09-11T13:16:56.079Z,66.24
2022-09-11T13:19:23.784Z,64.51
2022-09-11T13:21:55.087Z,63.77
2022-09-11T13:24:22.244Z,65.76
2022-09-11T13:26:55.219Z,64.60
2022-09-11T13:29:23.015Z,64.22
2022-09-11T13:31:50.645Z,64.18
2022-09-11T13:34:18.606Z,64.21
2022-09-11T13:36:47.180Z,66.58
2022-09-11T13:39:14.890Z,66.13
2022-09-11T13:41:44.410Z,66.82
2022-09-11T13:44:25.382Z,66.68
2022-09-11T13:46:53.105Z,65.46
2022-09-11T13:49:36.039Z,65.06
2022-09-11T13:52:05.242Z,65.83
2022-09-11T13:54:34.792Z,65.91
2022-09-11T13:57:01.989Z,65.90
2022-09-11T13:59:49.407Z,64.52
2022-09-11T14:02:35.272Z,66.04
2022-09-11T14:05:05.430Z,64.01
2022-09-11T14:07:33.327Z,64.01
2022-09-11T14:10:06.507Z,62.02
2022-09-11T14:12:35.084Z,62.30
2022-09-11T14:15:09.952Z,62.25
2022-09-11T14:17:40.415Z,62.96
2022-09-11T14:20:16.690Z,61.96
2022-09-11T14:22:44.274Z,62.03
2022-09-11T14:25:22.947Z,62.06
2022-09-11T14:27:50.552Z,60.05
2022-09-11T14:30:37.532Z,59.74
2022-09-11T14:33:21.487Z,59.07
2022-09-11T14:35:50.232Z,57.42
2022-09-11T14:38:19.432Z,57.87
2022-09-11T14:40:52.634Z,57.28
2022-09-11T14:43:26.570Z,54.76
2022-09-11T14:45:54.659Z,55.35
2022-09-11T14:48:22.334Z,53.95
2022-09-11T14:50:49.703Z,54.40
2022-09-11T14:53:18.782Z,51.50
2022-09-11T14:55:46.410Z,52.47
2022-09-11T14:58:13.806Z,51.35
2022-09-11T15:00:41.540Z,50.71
2022-09-11T15:03:09.224Z,51.13
2022-09-11T15:05:36.626Z,49.76
2022-09-11T15:08:05.085Z,49.75
2022-09-11T15:10:32.819Z,51.40
2022-09-11T15:13:00.265Z,50.16
2022-09-11T15:15:28.160Z,49.12
2022-09-11T15:17:55.868Z,49.83
2022-09-11T15:20:25.417Z,51.23
2022-09-11T15:22:52.761Z,51.22
2022-09-11T15:25:20.732Z,51.67
2022-09-11T15:27:53.323Z,51.93
2022-09-11T15:30:21.086Z,52.44
2022-09-11T15:32:48.950Z,52.50
2022-09-11T15:35:18.236Z,53.24
2022-09-11T15:37:46.892Z,51.58
2022-09-11T15:40:14.281Z,51.05
2022-09-11T15:42:42.142Z,51.77
2022-09-11T15:45:10.061Z,52.69
2022-09-11T15:47:37.414Z,51.82
2022-09-11T15:50:05.421Z,52.97
2022-09-11T15:52:34.377Z,52.90
2022-09-11T15:55:02.419Z,53.54
2022-09-11T15:57:31.025Z,53.94
2022-09-11T15:59:58.870Z,54.19
2022-09-11T16:02:27.118Z,55.00
2022-09-11T16:04:54.918Z,56.05
2022-09-11T16:07:23.364Z,55.52
2022-09-11T16:09:50.757Z,55.50
2022-09-11T16:12:18.479Z,55.80
2022-09-11T16:14:46.631Z,55.11
2022-09-11T16:17:16.898Z,53.27
2022-09-11T16:19:44.842Z,53.83
2022-09-11T16:22:12.298Z,55.45
2022-09-11T16:24:39.671Z,55.97
2022-09-11T16:27:07.968Z,55.94
2022-09-11T16:30:05.471Z,57.41
2022-09-11T16:32:29.200Z,55.97
2022-09-11T16:34:57.282Z,57.52
2022-09-11T16:37:25.849Z,56.76
2022-09-11T16:39:53.248Z,57.18
2022-09-11T16:42:21.262Z,56.33
2022-09-11T16:44:49.901Z,57.94
2022-09-11T16:47:17.642Z,58.32
2022-09-11T16:50:05.816Z,58.74
2022-09-11T16:52:32.612Z,58.26
2022-09-11T16:55:00.003Z,58.28
2022-09-11T16:57:27.513Z,57.08
2022-09-11T16:59:55.249Z,59.66
2022-09-11T17:02:22.641Z,59.43
2022-09-11T17:04:49.986Z,62.55
2022-09-11T17:07:18.295Z,61.17
2022-09-11T17:09:48.732Z,61.41
2022-09-11T17:12:17.955Z,60.01
2022-09-11T17:14:45.586Z,61.15
2022-09-11T17:17:13.078Z,59.98
2022-09-11T17:19:40.402Z,61.25
2022-09-11T17:22:08.640Z,60.84
2022-09-11T17:24:36.409Z,60.57
2022-09-11T17:27:03.840Z,60.47
2022-09-11T17:29:31.433Z,59.79
2022-09-11T17:32:23.922Z,58.56
2022-09-11T17:34:47.716Z,58.43
2022-09-11T17:37:15.130Z,58.52
2022-09-11T17:39:42.678Z,58.04
2022-09-11T17:42:13.189Z,58.81
2022-09-11T17:44:43.161Z,58.38
2022-09-11T17:47:10.773Z,58.93
2022-09-11T17:49:38.673Z,60.52
2022-09-11T17:52:06.020Z,61.46
2022-09-11T17:54:34.050Z,61.84
2022-09-11T17:57:01.383Z,64.87
2022-09-11T17:59:28.808Z,65.36
2022-09-11T18:01:58.996Z,63.96
2022-09-11T18:04:26.889Z,67.66
2022-09-11T18:06:55.077Z,66.09
2022-09-11T18:09:22.639Z,68.51
2022-09-11T18:11:51.017Z,67.53
2022-09-11T18:14:18.688Z,67.18
2022-09-11T18:16:47.302Z,66.76
2022-09-11T18:19:15.784Z,67.86
2022-09-11T18:21:46.767Z,65.27
2022-09-11T18:24:20.018Z,64.58
2022-09-11T18:26:49.914Z,64.47
2022-09-11T18:29:20.075Z,66.51
2022-09-11T18:31:52.318Z,67.68
2022-09-11T18:34:24.809Z,67.98
2022-09-11T18:36:52.289Z,67.48
2022-09-11T18:39:21.032Z,67.15
2022-09-11T18:41:49.687Z,67.64
2022-09-11T18:44:19.844Z,67.68
2022-09-11T18:46:48.238Z,67.31
2022-09-11T18:49:15.828Z,66.96
2022-09-11T18:51:43.580Z,67.82
2022-09-11T18:54:15.298Z,68.10
2022-09-11T18:56:43.053Z,70.62
2022-09-11T18:59:11.098Z,67.82
2022-09-11T19:01:39.874Z,69.04
2022-09-11T19:04:10.936Z,68.18
2022-09-11T19:06:38.786Z,68.78
2022-09-11T19:09:10.204Z,68.67
2022-09-11T19:11:38.245Z,68.82
2022-09-11T19:14:07.177Z,67.56
2022-09-11T19:16:36.145Z,66.32
2022-09-11T19:19:03.617Z,66.84
2022-09-11T19:21:31.319Z,66.17
2022-09-11T19:24:00.363Z,67.16
2022-09-11T19:26:33.191Z,66.85
2022-09-11T19:29:01.046Z,66.25
2022-09-11T19:31:30.002Z,66.49
2022-09-11T19:34:00.234Z,66.75
2022-09-11T19:36:32.245Z,66.34
2022-09-11T19:39:00.477Z,68.83
2022-09-11T19:41:33.229Z,69.58
2022-09-11T19:44:02.103Z,70.43
2022-09-11T19:46:30.790Z,70.06
2022-09-11T19:49:00.590Z,70.21
2022-09-11T19:51:35.560Z,70.46
2022-09-11T19:54:03.886Z,72.01
2022-09-11T19:56:32.856Z,70.95
2022-09-11T19:59:00.470Z,73.07
2022-09-11T20:01:29.492Z,71.58
2022-09-11T20:03:57.608Z,72.98
2022-09-11T20:06:27.440Z,71.50
2022-09-11T20:09:13.848Z,74.14
2022-09-11T20:11:43.855Z,73.90
2022-09-11T20:14:12.232Z,72.50
2022-09-11T20:16:39.561Z,72.37
2022-09-11T20:19:07.274Z,72.17
2022-09-11T20:21:36.041Z,70.91
2022-09-11T20:24:05.183Z,72.46
2022-09-11T20:26:32.957Z,73.40
2022-09-11T20:29:04.810Z,72.66
2022-09-11T20:31:37.069Z,72.89
2022-09-11T20:34:08.200Z,70.25
2022-09-11T20:36:35.561Z,71.77
2022-09-11T20:39:02.968Z,71.42
2022-09-11T20:41:30.601Z,70.95
2022-09-11T20:43:58.288Z,69.96
2022-09-11T20:46:25.756Z,70.07
2022-09-11T20:48:53.383Z,72.21
2022-09-11T20:51:21.002Z,71.11
2022-09-11T20:53:48.459Z,68.34
2022-09-11T20:56:17.976Z,71.15
2022-09-11T20:58:45.405Z,74.07
2022-09-11T21:01:14.261Z,72.90
2022-09-11T21:03:46.165Z,72.89
2022-09-11T21:06:13.685Z,70.02
2022-09-11T21:08:42.228Z,72.34
2022-09-11T21:11:09.965Z,71.41
2022-09-11T21:13:38.032Z,70.68
2022-09-11T21:16:10.018Z,69.71
2022-09-11T21:18:37.855Z,70.43
2022-09-11T21:21:05.497Z,71.38
2022-09-11T21:23:32.883Z,69.96
2022-09-11T21:26:00.524Z,67.36
2022-09-11T21:28:27.860Z,69.67
2022-09-11T21:30:57.153Z,67.63
2022-09-11T21:33:25.886Z,66.88
2022-09-11T21:35:53.598Z,65.51
2022-09-11T21:38:28.396Z,64.98
2022-09-11T21:40:56.942Z,65.28
2022-09-11T21:43:24.326Z,66.34
2022-09-11T21:45:51.670Z,65.29
2022-09-11T21:48:19.251Z,66.39
2022-09-11T21:50:46.585Z,65.93
2022-09-11T21:53:13.958Z,65.35
2022-09-11T21:55:43.345Z,65.68
2022-09-11T21:58:16.770Z,65.73
2022-09-11T22:00:44.434Z,70.66
2022-09-11T22:03:12.603Z,72.49
2022-09-11T22:05:43.239Z,74.10
2022-09-11T22:08:11.760Z,73.90
2022-09-11T22:10:43.329Z,72.50
2022-09-11T22:13:10.777Z,71.52
2022-09-11T22:15:48.314Z,74.21
2022-09-11T22:18:16.439Z,75.08
2022-09-11T22:20:43.997Z,72.92
2022-09-11T22:23:18.338Z,77.29
2022-09-11T22:25:45.983Z,77.06
2022-09-11T22:28:13.307Z,75.96
2022-09-11T22:30:41.836Z,75.57
2022-09-11T22:33:10.055Z,76.50
2022-09-11T22:35:37.508Z,72.11
2022-09-11T22:38:04.836Z,72.93
2022-09-11T22:40:32.446Z,75.94
2022-09-11T22:43:00.152Z,73.00
2022-09-11T22:45:27.562Z,73.58
2022-09-11T22:47:55.196Z,70.91
2022-09-11T22:50:22.488Z,72.47
2022-09-11T22:52:49.845Z,74.59
2022-09-11T22:55:17.492Z,74.04
2022-09-11T22:57:44.862Z,78.19
2022-09-11T23:00:14.303Z,77.94
2022-09-11T23:02:42.018Z,76.54
2022-09-11T23:05:28.014Z,74.95
2022-09-11T23:07:55.442Z,79.45
2022-09-11T23:10:23.722Z,76.84
2022-09-11T23:12:51.916Z,76.71
2022-09-11T23:15:19.599Z,79.18
2022-09-11T23:17:46.947Z,79.21
2022-09-11T23:20:14.317Z,79.63
2022-09-11T23:22:41.978Z,79.54
2022-09-11T23:25:11.116Z,78.70
2022-09-11T23:27:38.433Z,78.51
2022-09-11T23:30:06.376Z,80.01
2022-09-11T23:32:33.747Z,79.02
2022-09-11T23:35:01.093Z,77.45
2022-09-11T23:37:28.724Z,77.81
2022-09-11T23:39:56.097Z,77.52
2022-09-11T23:42:23.699Z,76.29
2022-09-11T23:44:51.297Z,77.82
2022-09-11T23:47:18.625Z,79.64
2022-09-11T23:49:46.935Z,78.20
2022-09-11T23:52:14.682Z,77.40
2022-09-11T23:54:41.998Z,78.02
2022-09-11T23:57:09.369Z,79.55
2022-09-11T23:59:37.014Z,79.50
